Time;durP1;ratioP1;P1;durP2;ratioP2;P2;SDS_P1;SDS_P2;PMS_P1;PMS_P2;Temp;Humidity;BMP_temperature;BMP_pressure;BME280_temperature;BME280_humidity;BME280_pressure;Samples;Min_cycle;Max_cycle;Signal;HPM_P1;HPM_P2
2023/12/14 00:00:45;;;;;;;1999.90;999.90;;;;;;;2.44;96.12;95599.66;5093792;28;20139;-65
2023/12/14 00:03:12;;;;;;;1999.90;999.90;;;;;;;2.51;96.17;95605.56;5093939;28;20097;-62
2023/12/14 00:05:39;;;;;;;1999.90;999.90;;;;;;;2.54;96.10;95602.94;5094309;28;20078;-63
2023/12/14 00:08:06;;;;;;;1999.90;999.90;;;;;;;2.58;95.96;95604.56;5094304;28;20059;-64
2023/12/14 00:10:35;;;;;;;1999.90;999.90;;;;;;;2.57;94.89;95609.75;5094189;28;20454;-63
2023/12/14 00:13:04;;;;;;;1999.90;999.90;;;;;;;2.57;94.49;95614.91;5094230;28;20044;-62
2023/12/14 00:15:31;;;;;;;1999.90;999.90;;;;;;;2.43;94.71;95612.59;5094073;28;20047;-65
2023/12/14 00:17:58;;;;;;;1999.90;999.90;;;;;;;2.44;95.44;95609.16;5094018;28;20116;-63
2023/12/14 00:20:25;;;;;;;1999.90;999.90;;;;;;;2.47;95.26;95614.28;5094045;28;20089;-63
2023/12/14 00:22:52;;;;;;;1999.90;999.90;;;;;;;2.46;95.45;95604.81;5094230;28;20047;-65
2023/12/14 00:25:19;;;;;;;1999.90;999.90;;;;;;;2.40;95.46;95609.22;5094058;28;20429;-61
2023/12/14 00:27:47;;;;;;;1999.90;999.90;;;;;;;2.44;95.44;95612.59;5093733;28;20053;-65
2023/12/14 00:30:15;;;;;;;1999.90;999.90;;;;;;;2.49;95.11;95626.25;5093417;28;20142;-64
2023/12/14 00:32:42;;;;;;;1999.90;999.90;;;;;;;2.48;94.78;95637.47;5093730;28;20081;-64
2023/12/14 00:35:09;;;;;;;1999.90;999.90;;;;;;;2.49;94.36;95641.75;5093827;28;20070;-61
2023/12/14 00:37:36;;;;;;;1999.90;999.90;;;;;;;2.48;94.48;95632.31;5093774;28;20044;-63
2023/12/14 00:40:03;;;;;;;1999.90;999.90;;;;;;;2.39;95.11;95624.75;5093595;28;20561;-62
2023/12/14 00:42:30;;;;;;;1999.90;999.90;;;;;;;2.41;95.89;95623.00;5093663;28;20056;-61
2023/12/14 00:44:59;;;;;;;1999.90;999.90;;;;;;;2.46;96.07;95620.28;5093596;28;20056;-62
2023/12/14 00:47:26;;;;;;;1999.90;999.90;;;;;;;2.43;96.00;95631.53;5093599;28;20080;-62
2023/12/14 00:49:53;;;;;;;1999.90;999.90;;;;;;;2.45;95.23;95637.53;5093341;28;20138;-65
2023/12/14 00:52:20;;;;;;;1999.90;999.90;;;;;;;2.41;94.97;95638.50;5093669;28;20044;-65
2023/12/14 00:54:47;;;;;;;1999.90;999.90;;;;;;;2.36;94.68;95636.00;5093419;28;20076;-63
2023/12/14 00:57:14;;;;;;;1999.90;999.90;;;;;;;2.31;94.91;95629.19;5093364;28;20047;-64
2023/12/14 00:59:41;;;;;;;1999.90;999.90;;;;;;;2.18;94.63;95633.75;5093729;28;20044;-62
2023/12/14 01:02:09;;;;;;;1999.90;999.90;;;;;;;2.23;94.52;95631.94;5093551;28;20135;-62
2023/12/14 01:04:37;;;;;;;1999.90;999.90;;;;;;;2.25;94.34;95625.88;5093296;28;20052;-65
2023/12/14 01:07:04;;;;;;;1999.90;999.90;;;;;;;2.27;94.59;95621.53;5093221;28;20409;-63
2023/12/14 01:09:31;;;;;;;1999.90;999.90;;;;;;;2.22;94.55;95604.41;5093448;28;20409;-62
2023/12/14 01:11:58;;;;;;;1999.90;999.90;;;;;;;2.22;94.95;95613.03;5092837;28;20560;-63
2023/12/14 01:14:25;;;;;;;1999.90;999.90;;;;;;;2.27;95.79;95602.63;5093248;28;20050;-62
2023/12/14 01:16:52;;;;;;;1999.90;999.90;;;;;;;2.22;95.84;95592.38;5093223;28;20044;-65
2023/12/14 01:19:20;;;;;;;1999.90;999.90;;;;;;;2.30;95.74;95596.53;5092963;28;20048;-63
2023/12/14 01:21:47;;;;;;;1999.90;999.90;;;;;;;2.33;95.48;95599.06;5092941;28;20087;-62
2023/12/14 01:24:14;;;;;;;1999.90;999.90;;;;;;;2.38;95.21;95610.16;5093031;28;20048;-63
2023/12/14 01:26:42;;;;;;;1999.90;999.90;;;;;;;2.41;95.39;95597.19;5093163;28;20500;-64
2023/12/14 01:29:09;;;;;;;1999.90;999.90;;;;;;;2.46;95.37;95592.75;5092789;28;20070;-62
2023/12/14 01:31:36;;;;;;;1999.90;999.90;;;;;;;2.47;95.41;95584.13;5092861;28;20109;-61
2023/12/14 01:34:03;;;;;;;1999.90;999.90;;;;;;;2.48;95.02;95582.41;5092993;28;20375;-65
2023/12/14 01:36:31;;;;;;;1999.90;999.90;;;;;;;2.45;95.12;95569.56;5092927;28;20404;-61
2023/12/14 01:38:58;;;;;;;1999.90;999.90;;;;;;;2.40;95.35;95572.22;5092922;28;20482;-63
2023/12/14 01:41:25;;;;;;;1999.90;999.90;;;;;;;2.47;95.50;95576.38;5092944;28;20044;-65
2023/12/14 01:43:52;;;;;;;1999.90;999.90;;;;;;;2.48;94.81;95577.22;5092937;28;20044;-64
2023/12/14 01:46:19;;;;;;;1999.90;999.90;;;;;;;2.39;95.38;95568.81;5092722;28;20520;-64
2023/12/14 01:48:46;;;;;;;1999.90;999.90;;;;;;;2.40;96.02;95577.38;5093202;28;20074;-65
2023/12/14 01:51:13;;;;;;;1999.90;999.90;;;;;;;2.46;95.93;95572.09;5092819;28;20504;-65
2023/12/14 01:53:42;;;;;;;1999.90;999.90;;;;;;;2.46;95.74;95572.09;5092713;28;20052;-64
2023/12/14 01:56:09;;;;;;;1999.90;999.90;;;;;;;2.48;95.56;95572.94;5092794;28;20419;-65
2023/12/14 01:58:36;;;;;;;1999.90;999.90;;;;;;;2.50;95.21;95578.06;5092709;28;20048;-62
2023/12/14 02:01:09;;;;;;;1999.90;999.90;;;;;;;2.51;95.17;95574.59;5092701;28;20072;-62
2023/12/14 02:03:36;;;;;;;1999.90;999.90;;;;;;;2.55;95.24;95571.06;5092918;28;20063;-62
2023/12/14 02:06:03;;;;;;;1999.90;999.90;;;;;;;2.45;95.03;95567.81;5092806;28;20086;-65
2023/12/14 02:08:30;;;;;;;1999.90;999.90;;;;;;;2.50;95.27;95565.97;5092703;28;20052;-65
2023/12/14 02:10:58;;;;;;;1999.90;999.90;;;;;;;2.50;95.62;95570.31;5092506;28;20131;-63
2023/12/14 02:13:26;;;;;;;1999.90;999.90;;;;;;;2.47;95.86;95571.22;5092832;28;20143;-61
2023/12/14 02:15:53;;;;;;;1999.90;999.90;;;;;;;2.49;96.32;95569.47;5092590;28;20105;-64
2023/12/14 02:18:20;;;;;;;1999.90;999.90;;;;;;;2.58;96.91;95568.41;5092617;28;20101;-63
2023/12/14 02:20:47;;;;;;;1999.90;999.90;;;;;;;2.55;95.74;95576.22;5093022;28;20044;-64
2023/12/14 02:23:16;;;;;;;1999.90;999.90;;;;;;;2.50;95.17;95576.31;5092725;28;20501;-61
2023/12/14 02:25:43;;;;;;;1999.90;999.90;;;;;;;2.52;95.56;95571.97;5094914;28;20082;-64
2023/12/14 02:28:10;;;;;;;1999.90;999.90;;;;;;;2.55;95.59;95572.78;5096245;28;20408;-61
2023/12/14 02:30:37;;;;;;;1999.90;999.90;;;;;;;2.53;95.73;95570.25;5096142;28;20131;-62
2023/12/14 02:33:04;;;;;;;1999.90;999.90;;;;;;;2.58;96.77;95559.78;5096118;28;20044;-62
2023/12/14 02:35:31;;;;;;;1999.90;999.90;;;;;;;2.62;96.24;95566.63;5095978;28;20044;-62
2023/12/14 02:37:58;;;;;;;1999.90;999.90;;;;;;;2.60;96.15;95558.91;5095917;28;20052;-62
2023/12/14 02:40:26;;;;;;;1999.90;999.90;;;;;;;2.65;96.53;95558.81;5095802;28;20383;-62
2023/12/14 02:42:53;;;;;;;1999.90;999.90;;;;;;;2.69;96.81;95565.59;5095919;28;20044;-65
2023/12/14 02:45:20;;;;;;;1999.90;999.90;;;;;;;2.70;96.86;95567.28;5095783;28;20497;-62
2023/12/14 02:47:49;;;;;;;1999.90;999.90;;;;;;;2.71;96.60;95589.63;5095686;28;20147;-65
2023/12/14 02:50:16;;;;;;;1999.90;999.90;;;;;;;2.74;96.41;95589.56;5095666;28;20105;-64
2023/12/14 02:52:43;;;;;;;1999.90;999.90;;;;;;;2.75;96.04;95580.09;5095653;28;20082;-62
2023/12/14 02:55:10;;;;;;;1999.90;999.90;;;;;;;2.61;96.41;95581.25;5095982;28;20044;-63
2023/12/14 02:57:39;;;;;;;1999.90;999.90;;;;;;;2.59;97.45;95582.19;5095672;28;20044;-62
2023/12/14 03:00:07;;;;;;;1999.90;999.90;;;;;;;2.62;97.41;95575.19;5095541;28;20055;-65
2023/12/14 03:02:35;;;;;;;1999.90;999.90;;;;;;;2.67;97.15;95567.34;5095492;28;20089;-64
2023/12/14 03:05:02;;;;;;;1999.90;999.90;;;;;;;2.59;97.07;95564.94;5095573;28;20407;-63
2023/12/14 03:07:29;;;;;;;1999.90;999.90;;;;;;;2.62;98.25;95570.03;5095619;28;20405;-62
2023/12/14 03:09:56;;;;;;;1999.90;999.90;;;;;;;2.70;98.96;95569.00;5095432;28;20078;-61
2023/12/14 03:12:23;;;;;;;1999.90;999.90;;;;;;;2.64;98.80;95565.69;5095303;28;20071;-62
2023/12/14 03:14:52;;;;;;;1999.90;999.90;;;;;;;2.69;99.00;95572.47;5095589;28;20048;-64
2023/12/14 03:17:19;;;;;;;1999.90;999.90;;;;;;;2.74;98.69;95565.50;5095210;28;20149;-63
2023/12/14 03:19:46;;;;;;;1999.90;999.90;;;;;;;2.71;98.81;95565.56;5095292;28;20157;-63
2023/12/14 03:22:13;;;;;;;1999.90;999.90;;;;;;;2.76;98.94;95555.97;5094943;28;20464;-62
2023/12/14 03:24:40;;;;;;;1999.90;999.90;;;;;;;2.77;99.16;95555.94;5094953;28;20489;-62
2023/12/14 03:27:07;;;;;;;1999.90;999.90;;;;;;;2.78;99.10;95557.66;5094965;28;20551;-64
2023/12/14 03:29:34;;;;;;;1999.90;999.90;;;;;;;2.87;99.51;95568.63;5094883;28;20134;-64
2023/12/14 03:32:03;;;;;;;1999.90;999.90;;;;;;;2.92;99.59;95577.13;5094821;28;20055;-64
2023/12/14 03:34:30;;;;;;;1999.90;999.90;;;;;;;2.93;99.53;95562.47;5094924;28;20043;-62
2023/12/14 03:36:57;;;;;;;1999.90;999.90;;;;;;;2.81;99.80;95542.94;5094867;28;20044;-61
2023/12/14 03:39:23;;;;;;;1999.90;999.90;;;;;;;2.85;100.00;95552.31;5094909;28;20048;-65
2023/12/14 03:41:51;;;;;;;1999.90;999.90;;;;;;;2.88;99.61;95555.69;5094924;28;20043;-63
2023/12/14 03:44:18;;;;;;;1999.90;999.90;;;;;;;2.92;99.04;95559.03;5094937;28;20077;-64
2023/12/14 03:46:45;;;;;;;1999.90;999.90;;;;;;;2.93;98.44;95554.72;5094539;28;20048;-62
2023/12/14 03:49:13;;;;;;;1999.90;999.90;;;;;;;2.96;98.63;95565.00;5094576;28;20059;-61
2023/12/14 03:51:41;;;;;;;1999.90;999.90;;;;;;;2.89;98.72;95565.13;5094436;28;20059;-59
2023/12/14 03:54:08;;;;;;;1999.90;999.90;;;;;;;2.94;98.87;95567.59;5094525;28;20503;-62
2023/12/14 03:56:35;;;;;;;1999.90;999.90;;;;;;;2.95;98.21;95571.06;5094511;28;20127;-63
2023/12/14 03:59:02;;;;;;;1999.90;999.90;;;;;;;2.95;98.87;95573.63;5094397;28;20098;-62
2023/12/14 04:01:29;;;;;;;1999.90;999.90;;;;;;;2.96;99.00;95567.56;5094398;28;20080;-61
2023/12/14 04:03:56;;;;;;;1999.90;999.90;;;;;;;2.97;98.71;95571.84;5094262;28;20577;-65
2023/12/14 04:06:25;;;;;;;1999.90;999.90;;;;;;;2.98;98.72;95564.06;5094140;28;20043;-62
2023/12/14 04:08:52;;;;;;;1999.90;999.90;;;;;;;2.98;98.63;95555.47;5094316;28;20044;-64
2023/12/14 04:11:19;;;;;;;1999.90;999.90;;;;;;;2.99;99.09;95563.19;5094059;28;20505;-64
2023/12/14 04:13:46;;;;;;;1999.90;999.90;;;;;;;3.08;99.52;95576.78;5094075;28;20043;-63
2023/12/14 04:16:13;;;;;;;1999.90;999.90;;;;;;;3.12;98.94;95583.56;5094144;28;20129;-63
2023/12/14 04:18:40;;;;;;;1999.90;999.90;;;;;;;3.13;98.91;95580.94;5093980;28;20052;-63
2023/12/14 04:21:07;;;;;;;1999.90;999.90;;;;;;;3.05;98.64;95582.88;5094022;28;20048;-62
2023/12/14 04:23:36;;;;;;;1999.90;999.90;;;;;;;3.11;100.00;95572.41;5093987;28;20051;-61
2023/12/14 04:26:03;;;;;;;1999.90;999.90;;;;;;;3.14;100.00;95566.28;5094095;28;20048;-64
2023/12/14 04:28:30;;;;;;;1999.90;999.90;;;;;;;3.18;100.00;95567.91;5094159;28;20060;-64
2023/12/14 04:30:57;;;;;;;1999.90;999.90;;;;;;;3.18;100.00;95562.75;5093509;28;20075;-62
2023/12/14 04:33:24;;;;;;;1999.90;999.90;;;;;;;3.19;100.00;95564.44;5093739;28;20130;-63
2023/12/14 04:35:52;;;;;;;1999.90;999.90;;;;;;;3.14;99.05;95574.03;5093888;28;20048;-62
2023/12/14 04:38:20;;;;;;;1999.90;999.90;;;;;;;3.10;98.86;95577.59;5093688;28;20064;-62
2023/12/14 04:40:48;;;;;;;1999.90;999.90;;;;;;;2.97;99.87;95543.44;5093711;28;20079;-63
2023/12/14 04:43:15;;;;;;;1999.90;999.90;;;;;;;2.99;100.00;95546.84;5093761;28;20044;-62
2023/12/14 04:45:42;;;;;;;1999.90;999.90;;;;;;;2.97;99.14;95551.19;5093588;28;20121;-64
2023/12/14 04:48:09;;;;;;;1999.90;999.90;;;;;;;2.97;99.12;95566.69;5092850;28;20044;-64
2023/12/14 04:50:36;;;;;;;1999.90;999.90;;;;;;;2.96;98.87;95581.34;5093453;28;20048;-63
2023/12/14 04:53:04;;;;;;;1999.90;999.90;;;;;;;2.99;98.74;95591.63;5093837;28;20048;-64
2023/12/14 04:55:31;;;;;;;1999.90;999.90;;;;;;;2.95;98.50;95587.38;5093523;28;20485;-61
2023/12/14 04:58:00;;;;;;;1999.90;999.90;;;;;;;2.90;99.18;95587.50;5093522;28;20052;-64
2023/12/14 05:00:27;;;;;;;1999.90;999.90;;;;;;;2.95;98.93;95579.63;5093344;28;20063;-64
2023/12/14 05:02:54;;;;;;;1999.90;999.90;;;;;;;2.97;98.62;95577.00;5093309;28;20047;-62
2023/12/14 05:05:21;;;;;;;1999.90;999.90;;;;;;;2.92;97.76;95551.28;5093317;28;20101;-64
2023/12/14 05:07:49;;;;;;;1999.90;999.90;;;;;;;2.84;98.09;95558.38;5093548;28;20044;-65
2023/12/14 05:10:16;;;;;;;1999.90;999.90;;;;;;;2.87;98.78;95556.59;5093134;28;20494;-65
2023/12/14 05:12:43;;;;;;;1999.90;999.90;;;;;;;2.83;99.21;95554.94;5093069;28;20498;-64
2023/12/14 05:15:13;;;;;;;1999.90;999.90;;;;;;;2.84;99.43;95568.72;5093517;28;20055;-61
2023/12/14 05:17:40;;;;;;;1999.90;999.90;;;;;;;2.88;99.31;95566.03;5093208;28;20113;-62
2023/12/14 05:20:10;;;;;;;1999.90;999.90;;;;;;;2.81;99.56;95558.44;5093354;28;20401;-61
2023/12/14 05:22:38;;;;;;;1999.90;999.90;;;;;;;2.82;99.80;95565.28;5093274;28;20048;-64
2023/12/14 05:25:08;;;;;;;1999.90;999.90;;;;;;;2.88;99.63;95567.75;5093117;28;20105;-61
2023/12/14 05:27:36;;;;;;;1999.90;999.90;;;;;;;2.92;99.58;95561.63;5093113;28;20077;-63
2023/12/14 05:30:03;;;;;;;1999.90;999.90;;;;;;;2.93;99.67;95558.16;5092760;28;20498;-63
2023/12/14 05:32:32;;;;;;;1999.90;999.90;;;;;;;3.00;99.63;95557.13;5092987;28;20402;-62
2023/12/14 05:34:59;;;;;;;1999.90;999.90;;;;;;;3.03;99.28;95567.41;5093097;28;20450;-65
2023/12/14 05:37:27;;;;;;;1999.90;999.90;;;;;;;3.07;98.98;95559.56;5092894;28;20056;-63
2023/12/14 05:39:54;;;;;;;1999.90;999.90;;;;;;;3.06;98.54;95550.09;5093209;28;20040;-62
2023/12/14 05:42:21;;;;;;;1999.90;999.90;;;;;;;3.00;98.57;95557.13;5093118;28;20086;-65
2023/12/14 05:44:49;;;;;;;1999.90;999.90;;;;;;;3.01;99.00;95550.25;5092835;28;20101;-63
2023/12/14 05:47:16;;;;;;;1999.90;999.90;;;;;;;3.07;99.52;95551.81;5093085;28;20414;-64
2023/12/14 05:49:45;;;;;;;1999.90;999.90;;;;;;;3.05;98.94;95551.00;5092880;28;20052;-61
2023/12/14 05:52:12;;;;;;;1999.90;999.90;;;;;;;3.03;98.58;95562.22;5092932;28;20056;-62
2023/12/14 05:54:40;;;;;;;1999.90;999.90;;;;;;;3.09;99.29;95555.19;5093007;28;20101;-63
2023/12/14 05:57:08;;;;;;;1999.90;999.90;;;;;;;3.08;99.11;95561.25;5092826;28;20063;-65
2023/12/14 05:59:35;;;;;;;1999.90;999.90;;;;;;;3.12;98.91;95576.66;5095106;28;20063;-64
2023/12/14 06:02:02;;;;;;;1999.90;999.90;;;;;;;3.12;98.88;95574.09;5096693;28;20043;-63
2023/12/14 06:04:29;;;;;;;1999.90;999.90;;;;;;;3.08;99.06;95576.78;5096495;28;20494;-62
2023/12/14 06:06:58;;;;;;;1999.90;999.90;;;;;;;3.12;99.82;95568.06;5096770;28;20166;-65
2023/12/14 06:09:32;;;;;;;1999.90;999.90;;;;;;;3.08;99.92;95569.88;5096516;28;20044;-64
2023/12/14 06:11:59;;;;;;;1999.90;999.90;;;;;;;3.11;99.15;95580.16;5096389;28;20478;-65
2023/12/14 06:14:27;;;;;;;1999.90;999.90;;;;;;;3.15;99.59;95567.97;5096372;28;20556;-62
2023/12/14 06:16:54;;;;;;;1999.90;999.90;;;;;;;3.18;99.25;95569.63;5096217;28;20040;-63
2023/12/14 06:19:21;;;;;;;1999.90;999.90;;;;;;;3.16;99.25;95580.88;5096247;28;20165;-64
2023/12/14 06:21:48;;;;;;;1999.90;999.90;;;;;;;3.14;99.33;95568.88;5096252;28;20172;-64
2023/12/14 06:24:17;;;;;;;1999.90;999.90;;;;;;;3.19;99.83;95574.78;5096133;28;20044;-65
2023/12/14 06:26:44;;;;;;;1999.90;999.90;;;;;;;3.16;100.00;95567.09;5096253;28;20082;-65
2023/12/14 06:29:12;;;;;;;1999.90;999.90;;;;;;;3.24;100.00;95585.00;5095863;28;20512;-62
2023/12/14 06:31:39;;;;;;;1999.90;999.90;;;;;;;3.31;100.00;95591.72;5095934;28;20497;-62
2023/12/14 06:34:07;;;;;;;1999.90;999.90;;;;;;;3.38;100.00;95592.44;5096144;28;20079;-63
2023/12/14 06:36:35;;;;;;;1999.90;999.90;;;;;;;3.38;100.00;95602.78;5096184;28;20082;-62
2023/12/14 06:39:03;;;;;;;1999.90;999.90;;;;;;;3.45;100.00;95606.03;5096203;28;20052;-64
2023/12/14 06:41:31;;;;;;;1999.90;999.90;;;;;;;3.50;100.00;95593.88;5095955;28;20048;-61
2023/12/14 06:43:59;;;;;;;1999.90;999.90;;;;;;;3.55;100.00;95599.75;5095983;28;20054;-63
2023/12/14 06:46:26;;;;;;;1999.90;999.90;;;;;;;3.61;100.00;95588.44;5095973;28;20409;-64
2023/12/14 06:48:53;;;;;;;1999.90;999.90;;;;;;;3.75;100.00;95588.91;5096024;28;20040;-62
2023/12/14 06:51:20;;;;;;;1999.90;999.90;;;;;;;3.89;100.00;95582.53;5095719;28;20126;-60
2023/12/14 06:53:48;;;;;;;1999.90;999.90;;;;;;;4.00;100.00;95587.41;5095888;28;20079;-62
2023/12/14 06:56:15;;;;;;;1999.90;999.90;;;;;;;4.09;100.00;95588.91;5095667;28;20131;-65
2023/12/14 06:58:45;;;;;;;1999.90;999.90;;;;;;;4.16;100.00;95583.50;5095962;28;20048;-64
2023/12/14 07:01:14;;;;;;;1999.90;999.90;;;;;;;4.23;100.00;95594.53;5095569;28;20105;-65
2023/12/14 07:03:43;;;;;;;1999.90;999.90;;;;;;;4.29;100.00;95611.63;5095461;28;20101;-61
2023/12/14 07:06:13;;;;;;;1999.90;999.90;;;;;;;4.38;100.00;95606.22;5095423;28;20048;-64
2023/12/14 07:08:40;;;;;;;1999.90;999.90;;;;;;;4.46;100.00;95611.19;5095424;28;20136;-64
2023/12/14 07:11:08;;;;;;;1999.90;999.90;;;;;;;4.55;100.00;95617.84;5094669;28;20048;-64
2023/12/14 07:13:36;;;;;;;1999.90;999.90;;;;;;;4.66;100.00;95614.91;5095307;28;20044;-65
2023/12/14 07:16:07;;;;;;;1999.90;999.90;;;;;;;4.74;99.91;95605.19;5095298;28;20052;-61
2023/12/14 07:18:35;;;;;;;1999.90;999.90;;;;;;;4.83;99.73;95601.47;5095311;28;20052;-62
2023/12/14 07:21:02;;;;;;;1999.90;999.90;;;;;;;4.91;100.00;95596.88;5095203;28;20055;-65
2023/12/14 07:23:29;;;;;;;1999.90;999.90;;;;;;;5.03;99.92;95606.03;5095205;28;20059;-62
2023/12/14 07:25:56;;;;;;;1999.90;999.90;;;;;;;5.13;100.00;95596.22;5095158;28;20040;-63
2023/12/14 07:28:24;;;;;;;1999.90;999.90;;;;;;;5.25;100.00;95613.16;5095206;28;20139;-62
2023/12/14 07:30:50;;;;;;;1999.90;999.90;;;;;;;5.35;100.00;95620.63;5094814;28;20087;-65
2023/12/14 07:33:19;;;;;;;1999.90;999.90;;;;;;;5.46;100.00;95626.31;5094916;28;20052;-65
2023/12/14 07:35:46;;;;;;;1999.90;999.90;;;;;;;5.51;99.40;95627.00;5094840;28;20101;-62
2023/12/14 07:38:13;;;;;;;1999.90;999.90;;;;;;;5.59;99.07;95623.31;5094708;28;20520;-64
2023/12/14 07:40:41;;;;;;;1999.90;999.90;;;;;;;5.68;98.86;95623.03;5094831;28;20048;-62
2023/12/14 07:43:08;;;;;;;1999.90;999.90;;;;;;;5.76;99.37;95620.16;5094718;28;20122;-63
2023/12/14 07:45:35;;;;;;;1999.90;999.90;;;;;;;5.84;99.39;95615.56;5094671;28;20090;-63
2023/12/14 07:48:03;;;;;;;1999.90;999.90;;;;;;;5.92;99.57;95623.09;5094848;28;20510;-63
2023/12/14 07:50:32;;;;;;;1999.90;999.90;;;;;;;6.03;99.60;95621.00;5094750;28;20059;-61
2023/12/14 07:52:59;;;;;;;1999.90;999.90;;;;;;;6.13;99.17;95613.75;5094608;28;20056;-63
2023/12/14 07:55:26;;;;;;;1999.90;999.90;;;;;;;6.23;99.12;95624.66;5094779;28;20114;-64
2023/12/14 07:57:53;;;;;;;1999.90;999.90;;;;;;;6.31;98.84;95625.25;5094453;28;20084;-63
2023/12/14 08:00:20;;;;;;;1999.90;999.90;;;;;;;6.33;98.50;95625.19;5094618;28;20127;-63
2023/12/14 08:02:47;;;;;;;1999.90;999.90;;;;;;;6.42;98.68;95616.22;5094412;28;20040;-64
2023/12/14 08:05:14;;;;;;;1999.90;999.90;;;;;;;6.58;99.01;95608.69;5094511;28;20055;-62
2023/12/14 08:07:43;;;;;;;1999.90;999.90;;;;;;;6.79;99.17;95625.25;5094226;28;20044;-64
2023/12/14 08:10:10;;;;;;;1999.90;999.90;;;;;;;7.03;98.30;95627.81;5094204;28;20547;-64
2023/12/14 08:12:38;;;;;;;1999.90;999.90;;;;;;;7.11;96.88;95617.13;5094365;28;20180;-65
2023/12/14 08:15:12;;;;;;;1999.90;999.90;;;;;;;7.19;97.52;95635.88;5094131;28;20133;-63
2023/12/14 08:17:39;;;;;;;1999.90;999.90;;;;;;;7.29;97.30;95617.31;5094069;28;20051;-64
2023/12/14 08:20:08;;;;;;;1999.90;999.90;;;;;;;7.45;95.96;95620.13;5093958;28;20050;-64
2023/12/14 08:22:36;;;;;;;1999.90;999.90;;;;;;;7.57;94.88;95614.44;5093131;28;20044;-63
2023/12/14 08:25:05;;;;;;;1999.90;999.90;;;;;;;7.67;93.97;95616.66;5093846;28;20048;-62
2023/12/14 08:27:32;;;;;;;1999.90;999.90;;;;;;;7.79;93.30;95626.56;5094146;28;20052;-64
2023/12/14 08:29:59;;;;;;;1999.90;999.90;;;;;;;7.91;92.35;95626.94;5093842;28;20050;-63
2023/12/14 08:32:26;;;;;;;1999.90;999.90;;;;;;;7.98;91.56;95625.81;5093796;28;20056;-63
2023/12/14 08:34:53;;;;;;;1999.90;999.90;;;;;;;8.04;91.14;95630.72;5093736;28;20512;-62
2023/12/14 08:37:20;;;;;;;1999.90;999.90;;;;;;;8.11;91.07;95627.88;5093967;28;20056;-64
2023/12/14 08:39:47;;;;;;;1999.90;999.90;;;;;;;8.17;90.94;95619.81;5093909;28;20044;-62
2023/12/14 08:42:16;;;;;;;1999.90;999.90;;;;;;;8.19;91.20;95621.41;5093657;28;20052;-62
2023/12/14 08:44:42;;;;;;;1999.90;999.90;;;;;;;8.17;90.99;95638.03;5093644;28;20500;-63
2023/12/14 08:47:09;;;;;;;1999.90;999.90;;;;;;;8.14;90.96;95645.97;5093474;28;20083;-64
2023/12/14 08:49:36;;;;;;;1999.90;999.90;;;;;;;8.20;90.79;95651.78;5093694;28;20087;-62
2023/12/14 08:52:05;;;;;;;1999.90;999.90;;;;;;;8.26;90.42;95640.25;5093524;28;20482;-63
2023/12/14 08:54:32;;;;;;;1999.90;999.90;;;;;;;8.34;90.11;95637.31;5093403;28;20048;-64
2023/12/14 08:57:00;;;;;;;1999.90;999.90;;;;;;;8.36;89.41;95632.03;5093371;28;20160;-64
2023/12/14 08:59:29;;;;;;;1999.90;999.90;;;;;;;8.41;88.58;95619.66;5093433;28;20052;-62
2023/12/14 09:01:57;;;;;;;1999.90;999.90;;;;;;;8.46;88.49;95625.50;5093398;28;20482;-65
2023/12/14 09:04:24;;;;;;;1999.90;999.90;;;;;;;8.53;88.05;95616.50;5093402;28;20127;-63
2023/12/14 09:06:51;;;;;;;1999.90;999.90;;;;;;;8.58;87.82;95617.16;5093327;28;20075;-62
2023/12/14 09:09:18;;;;;;;1999.90;999.90;;;;;;;8.64;86.98;95628.25;5093252;28;20143;-61
2023/12/14 09:11:45;;;;;;;1999.90;999.90;;;;;;;8.72;86.06;95637.41;5093191;28;20043;-65
2023/12/14 09:14:13;;;;;;;1999.90;999.90;;;;;;;8.79;85.51;95624.94;5093159;28;20139;-65
2023/12/14 09:16:41;;;;;;;1999.90;999.90;;;;;;;8.86;85.46;95625.50;5093107;28;20485;-63
2023/12/14 09:19:09;;;;;;;1999.90;999.90;;;;;;;8.94;85.22;95607.72;5093127;28;20055;-65
2023/12/14 09:21:36;;;;;;;1999.90;999.90;;;;;;;9.00;85.78;95613.59;5092997;28;20052;-64
2023/12/14 09:24:04;;;;;;;1999.90;999.90;;;;;;;9.08;85.94;95619.28;5093238;28;20486;-65
2023/12/14 09:26:31;;;;;;;1999.90;999.90;;;;;;;9.16;85.63;95614.56;5093199;28;20052;-64
2023/12/14 09:28:58;;;;;;;1999.90;999.90;;;;;;;9.22;85.12;95601.22;5092837;28;20054;-64
2023/12/14 09:31:25;;;;;;;1999.90;999.90;;;;;;;9.26;84.60;95601.91;5093115;28;20082;-64
2023/12/14 09:33:54;;;;;;;1999.90;999.90;;;;;;;9.28;84.24;95594.88;5094500;28;20084;-64
2023/12/14 09:36:21;;;;;;;1999.90;999.90;;;;;;;9.32;84.20;95604.25;5097451;28;20041;-63
2023/12/14 09:38:48;;;;;;;1999.90;999.90;;;;;;;9.38;84.02;95607.47;5097289;28;20514;-63
2023/12/14 09:41:15;;;;;;;1999.90;999.90;;;;;;;9.42;83.56;95607.25;5097169;28;20056;-61
2023/12/14 09:43:43;;;;;;;1999.90;999.90;;;;;;;9.47;83.23;95596.56;5096961;28;20056;-62
2023/12/14 09:46:11;;;;;;;1999.90;999.90;;;;;;;9.47;83.16;95592.22;5096932;28;20074;-63
2023/12/14 09:48:38;;;;;;;1999.90;999.90;;;;;;;9.55;83.80;95584.00;5097003;28;20047;-64
2023/12/14 09:51:08;;;;;;;1999.90;999.90;;;;;;;9.64;83.52;95587.94;5096969;28;20122;-64
2023/12/14 09:53:35;;;;;;;1999.90;999.90;;;;;;;9.70;83.62;95590.22;5096890;28;20383;-64
2023/12/14 09:56:02;;;;;;;1999.90;999.90;;;;;;;9.82;83.54;95583.53;5097030;28;20058;-62
2023/12/14 09:58:33;;;;;;;1999.90;999.90;;;;;;;9.96;82.40;95569.78;5096864;28;20080;-64
2023/12/14 10:01:00;;;;;;;1999.90;999.90;;;;;;;10.06;81.83;95587.63;5096671;28;20059;-64
2023/12/14 10:03:28;;;;;;;1999.90;999.90;;;;;;;10.15;81.61;95581.91;5096775;28;20101;-64
2023/12/14 10:05:56;;;;;;;1999.90;999.90;;;;;;;10.22;80.48;95574.59;5096530;28;20580;-62
2023/12/14 10:08:26;;;;;;;1999.90;999.90;;;;;;;10.31;79.49;95581.97;5096721;28;20423;-63
2023/12/14 10:10:55;;;;;;;1999.90;999.90;;;;;;;10.41;79.04;95566.63;5096818;28;20068;-62
2023/12/14 10:13:36;;;;;;;1999.90;999.90;;;;;;;10.48;78.41;95562.78;5096548;28;20135;-62
2023/12/14 10:16:03;;;;;;;1999.90;999.90;;;;;;;10.60;78.24;95571.75;5096466;28;20166;-64
2023/12/14 10:18:39;;;;;;;1999.90;999.90;;;;;;;10.70;78.41;95576.50;5096490;28;20079;-64
2023/12/14 10:21:08;;;;;;;1999.90;999.90;;;;;;;10.77;78.42;95577.00;5095769;28;20055;-64
2023/12/14 10:23:37;;;;;;;1999.90;999.90;;;;;;;10.79;77.94;95576.00;5096395;28;20383;-62
2023/12/14 10:26:06;;;;;;;1999.90;999.90;;;;;;;10.80;77.62;95571.59;5096239;28;20048;-64
2023/12/14 10:28:33;;;;;;;1999.90;999.90;;;;;;;10.82;78.21;95567.13;5096310;28;20051;-63
2023/12/14 10:31:00;;;;;;;1999.90;999.90;;;;;;;10.92;78.14;95564.84;5096068;28;20056;-65
2023/12/14 10:33:27;;;;;;;1999.90;999.90;;;;;;;11.04;77.90;95556.31;5096057;28;20056;-63
2023/12/14 10:35:54;;;;;;;1999.90;999.90;;;;;;;11.10;76.55;95545.53;5096211;28;20055;-64
2023/12/14 10:38:22;;;;;;;1999.90;999.90;;;;;;;11.19;76.89;95541.53;5095878;28;20052;-63
2023/12/14 10:40:53;;;;;;;1999.90;999.90;;;;;;;11.32;76.44;95549.53;5096172;28;20580;-64
2023/12/14 10:43:20;;;;;;;1999.90;999.90;;;;;;;11.37;75.78;95547.50;5096033;28;20395;-61
2023/12/14 10:45:48;;;;;;;1999.90;999.90;;;;;;;11.49;75.45;95545.09;5094843;28;20048;-64
2023/12/14 10:48:20;;;;;;;1999.90;999.90;;;;;;;11.58;74.66;95543.72;5095851;28;20048;-63
2023/12/14 10:50:49;;;;;;;1999.90;999.90;;;;;;;11.64;73.70;95530.28;5095802;28;20127;-65
2023/12/14 10:53:16;;;;;;;1999.90;999.90;;;;;;;11.75;73.52;95529.66;5095482;28;20059;-66
2023/12/14 10:55:45;;;;;;;1999.90;999.90;;;;;;;11.82;73.61;95525.75;5095720;28;20040;-63
2023/12/14 10:58:14;;;;;;;1999.90;999.90;;;;;;;11.86;72.78;95518.56;5095657;28;20062;-63
2023/12/14 11:00:43;;;;;;;1999.90;999.90;;;;;;;11.91;72.71;95516.50;5095606;28;20131;-63